Coral Topaz — 3ELB7 — position and weather

sailwx.info

Track history (hours):
 
Tides and Currents Weather Stations Pressure Air Temp Water Temp Dewpoint Dewpoint Depression Visibility Wind Speed Wind Dir Waves Ship Positions

Coral Topaz

Last reported at 2016-May-20 06:10 UTC. Time now 2016-May-30 12:34 UTC.
Position S 26°37' E 153°57'.
Warning: this ship's position is 10 days out of date.

Length 225 m; draft 12.9 m.

Type: Ship. MMSI: 372904000.

Date/timePositionNaut miles runAvg speedWind from/ knotsBaromVisibWave heightAir tempDewpointWater temp
2016-May-20 06:10S 26°37' E 153°57'2213.5
2016-May-20 04:31S 26°59' E 153°56'2613.1
2016-May-20 02:33S 27°25' E 153°57'2713.3
2016-May-20 00:33S 27°51' E 153°56'1313.2
2016-May-19 23:34S 28°04' E 153°55'1413.9
2016-May-19 22:33S 28°18' E 153°53'27112.3
2016-May-19 00:34S 32°39' E 152°28'1514.9
2016-May-18 23:34S 32°49' E 152°15'1413.8
2016-May-18 22:33S 32°57' E 152°02'1010.1
2016-May-18 21:33S 32°56' E 151°50'3 3.4
2016-May-18 20:33S 32°54' E 151°46'0 0.0
2016-May-18 19:25S 32°54' E 151°46'0 0.0
2016-May-18 18:28S 32°54' E 151°46'0 0.0
2016-May-18 17:28S 32°54' E 151°46'0 0.0
2016-May-18 16:28S 32°54' E 151°46'0 0.0
2016-May-18 15:31S 32°54' E 151°46'0 0.0
2016-May-18 14:31S 32°54' E 151°46'0 0.0
2016-May-18 13:31S 32°54' E 151°46'0 0.0
2016-May-18 12:28S 32°54' E 151°46'0 0.0
2016-May-18 11:31S 32°54' E 151°46'0 0.0
2016-May-18 10:31S 32°54' E 151°46'0 0.0
2016-May-18 09:31S 32°54' E 151°46'0 0.0
2016-May-18 08:31S 32°54' E 151°46'0 0.0
2016-May-18 07:31S 32°54' E 151°46'0 0.0
2016-May-18 06:31S 32°54' E 151°46'0 0.0
2016-May-18 05:31S 32°54' E 151°46'0 0.0
2016-May-18 04:28S 32°54' E 151°46'0 0.0
2016-May-18 03:25S 32°54' E 151°46'0 0.0
2016-May-18 02:28S 32°54' E 151°46'0 0.0
2016-May-18 01:31S 32°54' E 151°46'0 0.0
2016-May-18 00:31S 32°54' E 151°46'0 0.0
2016-May-17 23:31S 32°54' E 151°46'0 0.0
2016-May-17 22:28S 32°54' E 151°46'0 0.0
2016-May-17 21:25S 32°54' E 151°46'0 0.0
2016-May-17 20:31S 32°54' E 151°46'0 0.0
2016-May-17 19:28S 32°54' E 151°46'0 0.0
2016-May-17 18:31S 32°54' E 151°46'0 0.0
2016-May-17 17:31S 32°54' E 151°46'0 0.0
2016-May-17 16:31S 32°54' E 151°46'0 0.0
2016-May-17 15:31S 32°54' E 151°46'0 0.0
2016-May-17 14:31S 32°54' E 151°46'0 0.0
2016-May-17 13:31S 32°54' E 151°46'1 0.6
2016-May-17 12:33S 32°54' E 151°46'6 5.7
2016-May-17 11:33S 32°57' E 151°51'6 5.9
2016-May-17 10:33S 33°02' E 151°55'8 7.6
2016-May-17 09:33S 33°09' E 152°00'8 8.3
2016-May-17 08:33S 33°01' E 151°58'1212.0
2016-May-17 07:33S 32°55' E 152°10'1414.5
2016-May-17 06:34S 32°45' E 152°23'1514.6
2016-May-17 05:33S 32°35' E 152°36'1515.6
2016-May-17 04:33S 32°23' E 152°47'1816.5
2016-May-17 03:28S 32°06' E 152°54'1616.8
2016-May-17 02:30S 31°50' E 152°59'21716.7
2016-May-16 13:30S 28°20' E 153°59'3816.6
2016-May-16 11:14S 27°42' E 154°01'1516.4
2016-May-16 10:19S 27°27' E 154°01'1817.1
2016-May-16 09:14S 27°08' E 154°02'1217.2
2016-May-16 08:31S 26°56' E 154°02'  
Track history (hours):
 
Tides and Currents Weather Stations Pressure Air Temp Water Temp Dewpoint Dewpoint Depression Visibility Wind Speed Wind Dir Waves Ship Positions

Coral Topaz

Last reported at 2016-May-20 06:10 UTC. Time now 2016-May-30 12:34 UTC.
Position S 26°37' E 153°57'.
Warning: this ship's position is 10 days out of date.

Length 225 m; draft 12.9 m.

Type: Ship. MMSI: 372904000.

Date/timePositionNaut miles runAvg speedWind from/ knotsBaromVisibWave heightAir tempDewpointWater temp
2016-May-20 06:10S 26°37' E 153°57'2213.5
2016-May-20 04:31S 26°59' E 153°56'2613.1
2016-May-20 02:33S 27°25' E 153°57'2713.3
2016-May-20 00:33S 27°51' E 153°56'1313.2
2016-May-19 23:34S 28°04' E 153°55'1413.9
2016-May-19 22:33S 28°18' E 153°53'27112.3
2016-May-19 00:34S 32°39' E 152°28'1514.9
2016-May-18 23:34S 32°49' E 152°15'1413.8
2016-May-18 22:33S 32°57' E 152°02'1010.1
2016-May-18 21:33S 32°56' E 151°50'3 3.4
2016-May-18 20:33S 32°54' E 151°46'0 0.0
2016-May-18 19:25S 32°54' E 151°46'0 0.0
2016-May-18 18:28S 32°54' E 151°46'0 0.0
2016-May-18 17:28S 32°54' E 151°46'0 0.0
2016-May-18 16:28S 32°54' E 151°46'0 0.0
2016-May-18 15:31S 32°54' E 151°46'0 0.0
2016-May-18 14:31S 32°54' E 151°46'0 0.0
2016-May-18 13:31S 32°54' E 151°46'0 0.0
2016-May-18 12:28S 32°54' E 151°46'0 0.0
2016-May-18 11:31S 32°54' E 151°46'0 0.0
2016-May-18 10:31S 32°54' E 151°46'0 0.0
2016-May-18 09:31S 32°54' E 151°46'0 0.0
2016-May-18 08:31S 32°54' E 151°46'0 0.0
2016-May-18 07:31S 32°54' E 151°46'0 0.0
2016-May-18 06:31S 32°54' E 151°46'0 0.0
2016-May-18 05:31S 32°54' E 151°46'0 0.0
2016-May-18 04:28S 32°54' E 151°46'0 0.0
2016-May-18 03:25S 32°54' E 151°46'0 0.0
2016-May-18 02:28S 32°54' E 151°46'0 0.0
2016-May-18 01:31S 32°54' E 151°46'0 0.0
2016-May-18 00:31S 32°54' E 151°46'0 0.0
2016-May-17 23:31S 32°54' E 151°46'0 0.0
2016-May-17 22:28S 32°54' E 151°46'0 0.0
2016-May-17 21:25S 32°54' E 151°46'0 0.0
2016-May-17 20:31S 32°54' E 151°46'0 0.0
2016-May-17 19:28S 32°54' E 151°46'0 0.0
2016-May-17 18:31S 32°54' E 151°46'0 0.0
2016-May-17 17:31S 32°54' E 151°46'0 0.0
2016-May-17 16:31S 32°54' E 151°46'0 0.0
2016-May-17 15:31S 32°54' E 151°46'0 0.0
2016-May-17 14:31S 32°54' E 151°46'0 0.0
2016-May-17 13:31S 32°54' E 151°46'1 0.6
2016-May-17 12:33S 32°54' E 151°46'6 5.7
2016-May-17 11:33S 32°57' E 151°51'6 5.9
2016-May-17 10:33S 33°02' E 151°55'8 7.6
2016-May-17 09:33S 33°09' E 152°00'8 8.3
2016-May-17 08:33S 33°01' E 151°58'1212.0
2016-May-17 07:33S 32°55' E 152°10'1414.5
2016-May-17 06:34S 32°45' E 152°23'1514.6
2016-May-17 05:33S 32°35' E 152°36'1515.6
2016-May-17 04:33S 32°23' E 152°47'1816.5
2016-May-17 03:28S 32°06' E 152°54'1616.8
2016-May-17 02:30S 31°50' E 152°59'21716.7
2016-May-16 13:30S 28°20' E 153°59'3816.6
2016-May-16 11:14S 27°42' E 154°01'1516.4
2016-May-16 10:19S 27°27' E 154°01'1817.1
2016-May-16 09:14S 27°08' E 154°02'1217.2
2016-May-16 08:31S 26°56' E 154°02'  

Dump ship's entire track history